sensor_id;sensor_type;location;lat;lon;timestamp;pressure;altitude;pressure_sealevel;temperature;humidity
77321;BME280;66382;52.252;8.780;2023-11-22T00:00:15;101715.22;;;4.71;71.96
77321;BME280;66382;52.252;8.780;2023-11-22T00:02:41;101710.16;;;4.68;72.51
77321;BME280;66382;52.252;8.780;2023-11-22T00:05:07;101720.03;;;4.66;72.41
77321;BME280;66382;52.252;8.780;2023-11-22T00:07:34;101723.78;;;4.64;72.21
77321;BME280;66382;52.252;8.780;2023-11-22T00:10:00;101736.47;;;4.60;72.52
77321;BME280;66382;52.252;8.780;2023-11-22T00:12:25;101743.72;;;4.58;72.06
77321;BME280;66382;52.252;8.780;2023-11-22T00:14:51;101748.03;;;4.59;71.83
77321;BME280;66382;52.252;8.780;2023-11-22T00:17:16;101761.56;;;4.56;72.26
77321;BME280;66382;52.252;8.780;2023-11-22T00:19:42;101746.81;;;4.52;71.77
77321;BME280;66382;52.252;8.780;2023-11-22T00:22:07;101736.44;;;4.38;71.63
77321;BME280;66382;52.252;8.780;2023-11-22T00:24:34;101746.56;;;4.44;72.22
77321;BME280;66382;52.252;8.780;2023-11-22T00:26:59;101748.63;;;4.40;72.09
77321;BME280;66382;52.252;8.780;2023-11-22T00:29:25;101748.50;;;4.42;72.50
77321;BME280;66382;52.252;8.780;2023-11-22T00:31:50;101749.59;;;4.39;72.53
77321;BME280;66382;52.252;8.780;2023-11-22T00:34:16;101750.66;;;4.37;72.44
77321;BME280;66382;52.252;8.780;2023-11-22T00:36:41;101755.25;;;4.35;72.29
77321;BME280;66382;52.252;8.780;2023-11-22T00:39:06;101752.81;;;4.31;72.49
77321;BME280;66382;52.252;8.780;2023-11-22T00:41:33;101765.25;;;4.31;72.35
77321;BME280;66382;52.252;8.780;2023-11-22T00:43:59;101760.91;;;4.30;72.34
77321;BME280;66382;52.252;8.780;2023-11-22T00:46:24;101760.06;;;4.29;72.01
77321;BME280;66382;52.252;8.780;2023-11-22T00:48:49;101764.53;;;4.29;71.98
77321;BME280;66382;52.252;8.780;2023-11-22T00:51:15;101760.19;;;4.28;72.20
77321;BME280;66382;52.252;8.780;2023-11-22T00:53:40;101767.41;;;4.26;72.01
77321;BME280;66382;52.252;8.780;2023-11-22T00:56:06;101765.84;;;4.23;72.78
77321;BME280;66382;52.252;8.780;2023-11-22T00:58:33;101780.94;;;4.23;72.69
77321;BME280;66382;52.252;8.780;2023-11-22T01:00:58;101777.66;;;4.19;72.81
77321;BME280;66382;52.252;8.780;2023-11-22T01:03:24;101782.94;;;4.19;73.01
77321;BME280;66382;52.252;8.780;2023-11-22T01:05:49;101778.72;;;4.17;72.56
77321;BME280;66382;52.252;8.780;2023-11-22T01:08:15;101792.59;;;4.20;73.11
77321;BME280;66382;52.252;8.780;2023-11-22T01:10:40;101791.03;;;4.18;72.77
77321;BME280;66382;52.252;8.780;2023-11-22T01:13:05;101801.78;;;4.16;72.63
77321;BME280;66382;52.252;8.780;2023-11-22T01:15:32;101800.78;;;4.17;72.33
77321;BME280;66382;52.252;8.780;2023-11-22T01:17:58;101797.19;;;4.18;72.53
77321;BME280;66382;52.252;8.780;2023-11-22T01:20:23;101790.19;;;4.17;72.13
77321;BME280;66382;52.252;8.780;2023-11-22T01:22:49;101783.53;;;4.12;72.28
77321;BME280;66382;52.252;8.780;2023-11-22T01:25:14;101795.72;;;4.14;72.50
77321;BME280;66382;52.252;8.780;2023-11-22T01:27:40;101794.16;;;4.12;72.64
77321;BME280;66382;52.252;8.780;2023-11-22T01:30:06;101795.00;;;4.12;72.32
77321;BME280;66382;52.252;8.780;2023-11-22T01:32:33;101776.38;;;4.01;72.30
77321;BME280;66382;52.252;8.780;2023-11-22T01:34:58;101778.66;;;4.05;72.22
77321;BME280;66382;52.252;8.780;2023-11-22T01:37:24;101784.09;;;4.04;72.53
77321;BME280;66382;52.252;8.780;2023-11-22T01:39:49;101772.75;;;4.02;72.14
77321;BME280;66382;52.252;8.780;2023-11-22T01:42:14;101772.03;;;4.00;72.91
77321;BME280;66382;52.252;8.780;2023-11-22T01:44:40;101770.34;;;3.99;72.77
77321;BME280;66382;52.252;8.780;2023-11-22T01:47:06;101763.31;;;3.98;72.66
77321;BME280;66382;52.252;8.780;2023-11-22T01:49:33;101769.59;;;3.97;72.32
77321;BME280;66382;52.252;8.780;2023-11-22T01:51:58;101775.66;;;3.99;72.89
77321;BME280;66382;52.252;8.780;2023-11-22T01:54:25;101773.22;;;3.96;72.46
77321;BME280;66382;52.252;8.780;2023-11-22T01:56:51;101779.97;;;4.00;72.52
77321;BME280;66382;52.252;8.780;2023-11-22T01:59:17;101785.28;;;4.00;73.11
77321;BME280;66382;52.252;8.780;2023-11-22T02:01:43;101783.59;;;3.99;72.62
77321;BME280;66382;52.252;8.780;2023-11-22T02:04:08;101794.09;;;4.00;73.01
77321;BME280;66382;52.252;8.780;2023-11-22T02:06:35;101791.56;;;3.99;72.12
77321;BME280;66382;52.252;8.780;2023-11-22T02:09:01;101799.03;;;3.94;72.92
77321;BME280;66382;52.252;8.780;2023-11-22T02:11:26;101811.44;;;3.93;72.65
77321;BME280;66382;52.252;8.780;2023-11-22T02:13:52;101815.16;;;3.91;73.02
77321;BME280;66382;52.252;8.780;2023-11-22T02:16:17;101816.13;;;3.90;72.52
77321;BME280;66382;52.252;8.780;2023-11-22T02:18:43;101818.16;;;3.86;72.44
77321;BME280;66382;52.252;8.780;2023-11-22T02:21:09;101822.50;;;3.87;72.33
77321;BME280;66382;52.252;8.780;2023-11-22T02:23:36;101824.53;;;3.83;72.07
77321;BME280;66382;52.252;8.780;2023-11-22T02:26:01;101827.41;;;3.80;72.57
77321;BME280;66382;52.252;8.780;2023-11-22T02:28:27;101829.31;;;3.78;72.43
77321;BME280;66382;52.252;8.780;2023-11-22T02:30:52;101833.66;;;3.79;73.12
77321;BME280;66382;52.252;8.780;2023-11-22T02:33:18;101838.25;;;3.77;72.37
77321;BME280;66382;52.252;8.780;2023-11-22T02:35:43;101843.53;;;3.77;72.32
77321;BME280;66382;52.252;8.780;2023-11-22T02:38:08;101841.88;;;3.76;73.28
77321;BME280;66382;52.252;8.780;2023-11-22T02:40:35;101830.28;;;3.77;73.29
77321;BME280;66382;52.252;8.780;2023-11-22T02:43:01;101831.25;;;3.76;72.17
77321;BME280;66382;52.252;8.780;2023-11-22T02:45:27;101834.00;;;3.75;73.11
77321;BME280;66382;52.252;8.780;2023-11-22T02:47:53;101837.41;;;3.77;72.80
77321;BME280;66382;52.252;8.780;2023-11-22T02:50:19;101845.34;;;3.77;73.06
77321;BME280;66382;52.252;8.780;2023-11-22T02:52:44;101848.94;;;3.76;72.96
77321;BME280;66382;52.252;8.780;2023-11-22T02:55:10;101844.72;;;3.73;72.85
77321;BME280;66382;52.252;8.780;2023-11-22T02:57:37;101837.22;;;3.67;73.11
77321;BME280;66382;52.252;8.780;2023-11-22T03:00:04;101844.94;;;3.70;72.35
77321;BME280;66382;52.252;8.780;2023-11-22T03:02:30;101856.28;;;3.72;72.86
77321;BME280;66382;52.252;8.780;2023-11-22T03:04:55;101862.91;;;3.66;72.88
77321;BME280;66382;52.252;8.780;2023-11-22T03:07:21;101860.25;;;3.66;72.17
77321;BME280;66382;52.252;8.780;2023-11-22T03:09:46;101862.06;;;3.66;73.12
77321;BME280;66382;52.252;8.780;2023-11-22T03:12:12;101873.50;;;3.66;72.56
77321;BME280;66382;52.252;8.780;2023-11-22T03:14:39;101873.09;;;3.60;72.56
77321;BME280;66382;52.252;8.780;2023-11-22T03:17:04;101876.25;;;3.65;72.89
77321;BME280;66382;52.252;8.780;2023-11-22T03:19:30;101870.09;;;3.64;73.07
77321;BME280;66382;52.252;8.780;2023-11-22T03:21:55;101872.09;;;3.61;72.64
77321;BME280;66382;52.252;8.780;2023-11-22T03:24:21;101867.78;;;3.60;73.02
77321;BME280;66382;52.252;8.780;2023-11-22T03:26:46;101870.44;;;3.60;73.32
77321;BME280;66382;52.252;8.780;2023-11-22T03:29:12;101871.19;;;3.62;72.54
77321;BME280;66382;52.252;8.780;2023-11-22T03:31:40;101875.63;;;3.61;72.65
77321;BME280;66382;52.252;8.780;2023-11-22T03:34:06;101881.78;;;3.62;72.76
77321;BME280;66382;52.252;8.780;2023-11-22T03:36:31;101875.84;;;3.58;72.69
77321;BME280;66382;52.252;8.780;2023-11-22T03:38:56;101886.88;;;3.52;72.19
77321;BME280;66382;52.252;8.780;2023-11-22T03:41:22;101890.50;;;3.51;73.26
77321;BME280;66382;52.252;8.780;2023-11-22T03:43:47;101889.63;;;3.51;72.50
77321;BME280;66382;52.252;8.780;2023-11-22T03:46:13;101894.53;;;3.44;72.37
77321;BME280;66382;52.252;8.780;2023-11-22T03:48:40;101903.03;;;3.49;72.61
77321;BME280;66382;52.252;8.780;2023-11-22T03:51:05;101898.13;;;3.43;72.88
77321;BME280;66382;52.252;8.780;2023-11-22T03:53:30;101914.03;;;3.43;73.00
77321;BME280;66382;52.252;8.780;2023-11-22T03:55:56;101915.09;;;3.40;72.71
77321;BME280;66382;52.252;8.780;2023-11-22T03:58:21;101912.56;;;3.39;72.65
77321;BME280;66382;52.252;8.780;2023-11-22T04:00:47;101910.03;;;3.37;73.03
77321;BME280;66382;52.252;8.780;2023-11-22T04:03:12;101916.28;;;3.36;73.19
77321;BME280;66382;52.252;8.780;2023-11-22T04:05:39;101925.09;;;3.37;72.46
77321;BME280;66382;52.252;8.780;2023-11-22T04:08:05;101899.75;;;3.20;72.38
77321;BME280;66382;52.252;8.780;2023-11-22T04:10:30;101932.19;;;3.36;72.38
77321;BME280;66382;52.252;8.780;2023-11-22T04:12:56;101916.78;;;3.29;72.71
77321;BME280;66382;52.252;8.780;2023-11-22T04:15:21;101918.50;;;3.30;72.74
77321;BME280;66382;52.252;8.780;2023-11-22T04:17:47;101929.13;;;3.30;72.68
77321;BME280;66382;52.252;8.780;2023-11-22T04:20:12;101928.47;;;3.26;72.81
77321;BME280;66382;52.252;8.780;2023-11-22T04:22:39;101936.41;;;3.26;72.78
77321;BME280;66382;52.252;8.780;2023-11-22T04:25:05;101933.75;;;3.26;73.34
77321;BME280;66382;52.252;8.780;2023-11-22T04:27:31;101935.47;;;3.27;72.79
77321;BME280;66382;52.252;8.780;2023-11-22T04:29:57;101942.69;;;3.25;72.88
77321;BME280;66382;52.252;8.780;2023-11-22T04:32:22;101932.06;;;3.25;72.69
77321;BME280;66382;52.252;8.780;2023-11-22T04:34:48;101947.88;;;3.27;72.56
77321;BME280;66382;52.252;8.780;2023-11-22T04:37:13;101941.94;;;3.23;72.52
77321;BME280;66382;52.252;8.780;2023-11-22T04:39:40;101949.88;;;3.23;72.51
77321;BME280;66382;52.252;8.780;2023-11-22T04:42:06;101956.16;;;3.22;72.71
77321;BME280;66382;52.252;8.780;2023-11-22T04:44:31;101958.69;;;3.23;73.28
77321;BME280;66382;52.252;8.780;2023-11-22T04:46:56;101956.03;;;3.23;73.19
77321;BME280;66382;52.252;8.780;2023-11-22T04:49:22;101946.47;;;3.21;72.75
77321;BME280;66382;52.252;8.780;2023-11-22T04:51:47;101945.84;;;3.17;72.89
77321;BME280;66382;52.252;8.780;2023-11-22T04:54:13;101945.00;;;3.17;73.02
77321;BME280;66382;52.252;8.780;2023-11-22T04:56:40;101945.00;;;3.17;73.08
77321;BME280;66382;52.252;8.780;2023-11-22T04:59:05;101938.84;;;3.16;73.12
77321;BME280;66382;52.252;8.780;2023-11-22T05:01:31;101926.78;;;3.12;73.51
77321;BME280;66382;52.252;8.780;2023-11-22T05:03:57;101938.13;;;3.14;73.17
77321;BME280;66382;52.252;8.780;2023-11-22T05:06:22;101938.84;;;3.16;73.19
77321;BME280;66382;52.252;8.780;2023-11-22T05:08:47;101945.94;;;3.16;73.27
77321;BME280;66382;52.252;8.780;2023-11-22T05:11:13;101945.19;;;3.14;73.10
77321;BME280;66382;52.252;8.780;2023-11-22T05:13:40;101939.59;;;3.06;73.07
77321;BME280;66382;52.252;8.780;2023-11-22T05:16:06;101964.72;;;3.13;73.39
77321;BME280;66382;52.252;8.780;2023-11-22T05:18:31;101969.91;;;3.14;73.54
77321;BME280;66382;52.252;8.780;2023-11-22T05:20:57;101968.22;;;3.13;73.07
77321;BME280;66382;52.252;8.780;2023-11-22T05:23:22;101982.22;;;3.15;73.54
77321;BME280;66382;52.252;8.780;2023-11-22T05:25:48;101992.59;;;3.18;73.18
77321;BME280;66382;52.252;8.780;2023-11-22T05:28:13;102003.09;;;3.20;72.86
77321;BME280;66382;52.252;8.780;2023-11-22T05:30:40;102000.53;;;3.18;72.82
77321;BME280;66382;52.252;8.780;2023-11-22T05:33:06;102001.81;;;3.13;72.69
77321;BME280;66382;52.252;8.780;2023-11-22T05:35:32;101996.50;;;3.13;72.90
77321;BME280;66382;52.252;8.780;2023-11-22T05:37:57;101997.78;;;3.07;72.50
77321;BME280;66382;52.252;8.780;2023-11-22T05:40:23;102001.78;;;3.00;72.78
77321;BME280;66382;52.252;8.780;2023-11-22T05:42:48;101996.72;;;2.97;73.02
77321;BME280;66382;52.252;8.780;2023-11-22T05:45:14;101998.81;;;2.92;72.98
77321;BME280;66382;52.252;8.780;2023-11-22T05:47:40;101997.31;;;2.88;72.72
77321;BME280;66382;52.252;8.780;2023-11-22T05:50:07;101992.41;;;2.82;73.16
77321;BME280;66382;52.252;8.780;2023-11-22T05:52:33;101995.81;;;2.84;72.82
77321;BME280;66382;52.252;8.780;2023-11-22T05:54:58;101986.25;;;2.81;73.48
77321;BME280;66382;52.252;8.780;2023-11-22T05:57:24;101993.91;;;2.86;73.60
77321;BME280;66382;52.252;8.780;2023-11-22T05:59:49;101984.38;;;2.83;73.48
77321;BME280;66382;52.252;8.780;2023-11-22T06:02:15;101998.81;;;2.92;73.25
77321;BME280;66382;52.252;8.780;2023-11-22T06:04:41;101993.69;;;2.89;73.40
77321;BME280;66382;52.252;8.780;2023-11-22T06:07:07;101996.47;;;2.87;73.20
77321;BME280;66382;52.252;8.780;2023-11-22T06:09:32;102004.59;;;2.84;73.26
77321;BME280;66382;52.252;8.780;2023-11-22T06:11:58;102010.63;;;2.86;73.51
77321;BME280;66382;52.252;8.780;2023-11-22T06:14:23;102001.94;;;2.84;73.23
77321;BME280;66382;52.252;8.780;2023-11-22T06:16:49;102005.56;;;2.83;73.56
77321;BME280;66382;52.252;8.780;2023-11-22T06:19:14;101996.22;;;2.77;73.07
77321;BME280;66382;52.252;8.780;2023-11-22T06:21:41;101993.16;;;2.84;72.98
77321;BME280;66382;52.252;8.780;2023-11-22T06:24:07;101996.97;;;2.79;72.79
77321;BME280;66382;52.252;8.780;2023-11-22T06:26:32;102008.50;;;2.78;72.77
77321;BME280;66382;52.252;8.780;2023-11-22T06:28:58;102006.81;;;2.77;72.74
77321;BME280;66382;52.252;8.780;2023-11-22T06:31:23;101999.94;;;2.75;72.77
77321;BME280;66382;52.252;8.780;2023-11-22T06:33:48;102000.84;;;2.74;72.61
77321;BME280;66382;52.252;8.780;2023-11-22T06:36:14;101981.69;;;2.70;72.99
77321;BME280;66382;52.252;8.780;2023-11-22T06:38:41;101988.97;;;2.67;72.61
77321;BME280;66382;52.252;8.780;2023-11-22T06:41:06;101988.97;;;2.67;73.03
77321;BME280;66382;52.252;8.780;2023-11-22T06:43:31;101995.22;;;2.66;72.69
77321;BME280;66382;52.252;8.780;2023-11-22T06:45:57;101987.66;;;2.59;72.90
77321;BME280;66382;52.252;8.780;2023-11-22T06:48:22;101982.50;;;2.58;73.05
77321;BME280;66382;52.252;8.780;2023-11-22T06:50:48;101988.63;;;2.58;73.03
77321;BME280;66382;52.252;8.780;2023-11-22T06:53:13;101984.09;;;2.61;73.02
77321;BME280;66382;52.252;8.780;2023-11-22T06:55:40;101985.59;;;2.65;72.54
77321;BME280;66382;52.252;8.780;2023-11-22T06:58:05;101985.59;;;2.65;72.66
77321;BME280;66382;52.252;8.780;2023-11-22T07:00:31;101981.03;;;2.67;72.70
77321;BME280;66382;52.252;8.780;2023-11-22T07:02:56;101967.16;;;2.63;72.69
77321;BME280;66382;52.252;8.780;2023-11-22T07:05:22;101988.88;;;2.68;73.02
77321;BME280;66382;52.252;8.780;2023-11-22T07:07:47;101985.38;;;2.68;72.66
77321;BME280;66382;52.252;8.780;2023-11-22T07:10:13;101983.66;;;2.67;72.66
77321;BME280;66382;52.252;8.780;2023-11-22T07:12:39;101988.25;;;2.65;73.07
77321;BME280;66382;52.252;8.780;2023-11-22T07:15:06;101985.19;;;2.71;72.82
77321;BME280;66382;52.252;8.780;2023-11-22T07:17:31;101985.72;;;2.76;72.82
77321;BME280;66382;52.252;8.780;2023-11-22T07:19:57;101993.44;;;2.79;73.24
77321;BME280;66382;52.252;8.780;2023-11-22T07:22:22;102000.34;;;2.82;72.98
77321;BME280;66382;52.252;8.780;2023-11-22T07:24:48;101996.00;;;2.80;72.75
77321;BME280;66382;52.252;8.780;2023-11-22T07:27:14;101994.22;;;2.81;73.04
77321;BME280;66382;52.252;8.780;2023-11-22T07:29:42;101991.25;;;2.86;72.95
77321;BME280;66382;52.252;8.780;2023-11-22T07:32:08;101980.44;;;2.89;73.33
77321;BME280;66382;52.252;8.780;2023-11-22T07:34:33;101981.66;;;2.97;73.32
77321;BME280;66382;52.252;8.780;2023-11-22T07:36:59;101980.38;;;3.03;73.28
77321;BME280;66382;52.252;8.780;2023-11-22T07:39:24;101990.69;;;3.08;73.15
77321;BME280;66382;52.252;8.780;2023-11-22T07:41:50;101994.81;;;3.12;73.08
77321;BME280;66382;52.252;8.780;2023-11-22T07:44:15;101981.88;;;3.07;73.62
77321;BME280;66382;52.252;8.780;2023-11-22T07:46:43;101993.34;;;3.20;73.31
77321;BME280;66382;52.252;8.780;2023-11-22T07:49:08;101990.38;;;3.25;73.32
77321;BME280;66382;52.252;8.780;2023-11-22T07:51:34;101969.81;;;3.16;73.20
77321;BME280;66382;52.252;8.780;2023-11-22T07:53:59;102010.75;;;3.37;73.47
77321;BME280;66382;52.252;8.780;2023-11-22T07:56:25;102013.94;;;3.42;73.54
77321;BME280;66382;52.252;8.780;2023-11-22T07:58:50;102008.53;;;3.44;73.41
77321;BME280;66382;52.252;8.780;2023-11-22T08:01:15;102021.16;;;3.53;73.40
77321;BME280;66382;52.252;8.780;2023-11-22T08:03:42;102023.81;;;3.66;73.45
77321;BME280;66382;52.252;8.780;2023-11-22T08:06:08;102030.06;;;3.78;73.50
77321;BME280;66382;52.252;8.780;2023-11-22T08:08:33;102023.06;;;3.90;74.21
77321;BME280;66382;52.252;8.780;2023-11-22T08:10:59;102023.78;;;4.04;73.11
77321;BME280;66382;52.252;8.780;2023-11-22T08:13:24;102033.84;;;4.12;73.55
77321;BME280;66382;52.252;8.780;2023-11-22T08:15:49;102033.41;;;4.31;73.14
77321;BME280;66382;52.252;8.780;2023-11-22T08:18:15;102030.38;;;4.48;72.56
77321;BME280;66382;52.252;8.780;2023-11-22T08:20:42;102025.66;;;4.52;71.78
77321;BME280;66382;52.252;8.780;2023-11-22T08:23:07;102018.59;;;4.52;71.28
77321;BME280;66382;52.252;8.780;2023-11-22T08:25:33;102029.47;;;4.61;70.75
77321;BME280;66382;52.252;8.780;2023-11-22T08:27:58;102033.25;;;4.69;71.54
77321;BME280;66382;52.252;8.780;2023-11-22T08:30:24;102037.81;;;4.80;72.34
77321;BME280;66382;52.252;8.780;2023-11-22T08:32:49;102044.00;;;4.92;72.86
77321;BME280;66382;52.252;8.780;2023-11-22T08:35:15;102049.47;;;5.02;72.12
77321;BME280;66382;52.252;8.780;2023-11-22T08:37:41;102044.78;;;5.05;71.41
77321;BME280;66382;52.252;8.780;2023-11-22T08:40:08;102040.38;;;5.17;71.95
77321;BME280;66382;52.252;8.780;2023-11-22T08:42:34;102050.63;;;5.22;72.09
77321;BME280;66382;52.252;8.780;2023-11-22T08:45:00;102055.63;;;5.26;72.31
77321;BME280;66382;52.252;8.780;2023-11-22T08:47:25;102062.66;;;5.27;72.33
77321;BME280;66382;52.252;8.780;2023-11-22T08:49:50;102071.47;;;5.28;72.32
77321;BME280;66382;52.252;8.780;2023-11-22T08:52:16;102076.88;;;5.26;72.04
77321;BME280;66382;52.252;8.780;2023-11-22T08:54:43;102087.66;;;5.25;72.00
77321;BME280;66382;52.252;8.780;2023-11-22T08:57:08;102092.34;;;5.21;72.20
77321;BME280;66382;52.252;8.780;2023-11-22T08:59:37;102071.38;;;5.05;72.47
77321;BME280;66382;52.252;8.780;2023-11-22T09:02:02;102091.25;;;5.24;72.15
77321;BME280;66382;52.252;8.780;2023-11-22T09:04:28;102086.81;;;5.24;71.93
77321;BME280;66382;52.252;8.780;2023-11-22T09:06:53;102096.56;;;5.24;72.12
77321;BME280;66382;52.252;8.780;2023-11-22T09:09:18;102082.34;;;5.25;72.00
77321;BME280;66382;52.252;8.780;2023-11-22T09:11:45;102069.03;;;5.25;71.58
77321;BME280;66382;52.252;8.780;2023-11-22T09:14:11;102061.28;;;5.22;71.54
77321;BME280;66382;52.252;8.780;2023-11-22T09:16:36;102063.00;;;5.23;71.69
77321;BME280;66382;52.252;8.780;2023-11-22T09:19:02;102070.00;;;5.24;71.53
77321;BME280;66382;52.252;8.780;2023-11-22T09:21:27;102063.09;;;5.21;71.56
77321;BME280;66382;52.252;8.780;2023-11-22T09:23:53;102062.88;;;5.24;71.26
77321;BME280;66382;52.252;8.780;2023-11-22T09:26:18;102070.63;;;5.27;71.50
77321;BME280;66382;52.252;8.780;2023-11-22T09:28:45;102062.75;;;5.26;72.01
77321;BME280;66382;52.252;8.780;2023-11-22T09:31:10;102059.00;;;5.28;71.40
77321;BME280;66382;52.252;8.780;2023-11-22T09:33:36;102067.50;;;5.33;71.69
77321;BME280;66382;52.252;8.780;2023-11-22T09:36:03;102054.44;;;5.30;71.84
77321;BME280;66382;52.252;8.780;2023-11-22T09:38:28;102047.69;;;5.37;71.58
77321;BME280;66382;52.252;8.780;2023-11-22T09:40:54;102048.88;;;5.33;71.34
77321;BME280;66382;52.252;8.780;2023-11-22T09:43:19;102061.59;;;5.41;71.67
77321;BME280;66382;52.252;8.780;2023-11-22T09:45:47;102070.19;;;5.45;71.44
77321;BME280;66382;52.252;8.780;2023-11-22T09:48:15;102077.53;;;5.41;71.41
77321;BME280;66382;52.252;8.780;2023-11-22T09:50:50;102074.88;;;5.41;71.44
77321;BME280;66382;52.252;8.780;2023-11-22T09:53:24;102068.72;;;5.41;71.27
77321;BME280;66382;52.252;8.780;2023-11-22T09:55:50;102071.28;;;5.42;71.61
77321;BME280;66382;52.252;8.780;2023-11-22T09:58:16;102071.78;;;5.47;71.39
77321;BME280;66382;52.252;8.780;2023-11-22T10:00:42;102073.47;;;5.48;71.16
77321;BME280;66382;52.252;8.780;2023-11-22T10:03:10;102077.94;;;5.48;71.20
77321;BME280;66382;52.252;8.780;2023-11-22T10:05:36;102069.13;;;5.47;71.13
77321;BME280;66382;52.252;8.780;2023-11-22T10:08:01;102062.81;;;5.48;71.27
77321;BME280;66382;52.252;8.780;2023-11-22T10:10:31;102063.56;;;5.50;71.43
77321;BME280;66382;52.252;8.780;2023-11-22T10:12:57;102058.88;;;5.54;70.43
77321;BME280;66382;52.252;8.780;2023-11-22T10:15:23;102061.38;;;5.55;70.55
77321;BME280;66382;52.252;8.780;2023-11-22T10:17:54;102070.00;;;5.59;70.64
77321;BME280;66382;52.252;8.780;2023-11-22T10:20:22;102069.88;;;5.60;70.79
77321;BME280;66382;52.252;8.780;2023-11-22T10:22:47;102063.94;;;5.68;70.91
77321;BME280;66382;52.252;8.780;2023-11-22T10:25:13;102067.25;;;5.72;70.62
77321;BME280;66382;52.252;8.780;2023-11-22T10:27:39;102076.81;;;5.74;70.50
77321;BME280;66382;52.252;8.780;2023-11-22T10:30:06;102073.06;;;5.77;70.44
77321;BME280;66382;52.252;8.780;2023-11-22T10:32:32;102070.16;;;5.80;70.75
77321;BME280;66382;52.252;8.780;2023-11-22T10:34:58;102063.75;;;5.82;70.59
77321;BME280;66382;52.252;8.780;2023-11-22T10:37:25;102061.47;;;5.89;70.68
77321;BME280;66382;52.252;8.780;2023-11-22T10:39:51;102056.66;;;5.94;70.53
77321;BME280;66382;52.252;8.780;2023-11-22T10:42:17;102059.78;;;5.99;70.53
77321;BME280;66382;52.252;8.780;2023-11-22T10:44:44;102039.09;;;6.03;69.86
77321;BME280;66382;52.252;8.780;2023-11-22T10:47:15;102043.56;;;6.02;69.98
77321;BME280;66382;52.252;8.780;2023-11-22T10:49:40;102040.91;;;6.02;70.29
77321;BME280;66382;52.252;8.780;2023-11-22T10:52:08;102035.59;;;6.02;70.41
77321;BME280;66382;52.252;8.780;2023-11-22T10:54:44;102049.75;;;6.03;70.61
77321;BME280;66382;52.252;8.780;2023-11-22T10:57:16;102045.16;;;6.05;70.58
77321;BME280;66382;52.252;8.780;2023-11-22T10:59:53;102043.31;;;6.06;70.52
77321;BME280;66382;52.252;8.780;2023-11-22T11:02:21;102017.44;;;5.96;70.45
77321;BME280;66382;52.252;8.780;2023-11-22T11:04:52;102033.41;;;6.08;69.84
77321;BME280;66382;52.252;8.780;2023-11-22T11:07:21;102017.31;;;6.09;70.38
77321;BME280;66382;52.252;8.780;2023-11-22T11:09:49;102001.72;;;6.05;70.20
77321;BME280;66382;52.252;8.780;2023-11-22T11:12:14;102001.34;;;6.09;70.65
77321;BME280;66382;52.252;8.780;2023-11-22T11:14:40;102004.84;;;6.10;70.09
77321;BME280;66382;52.252;8.780;2023-11-22T11:17:06;102014.03;;;6.06;68.04
77321;BME280;66382;52.252;8.780;2023-11-22T11:19:32;101998.09;;;5.94;68.05
77321;BME280;66382;52.252;8.780;2023-11-22T11:21:59;101995.88;;;5.88;67.97
77321;BME280;66382;52.252;8.780;2023-11-22T11:24:25;102011.34;;;5.83;68.17
77321;BME280;66382;52.252;8.780;2023-11-22T11:26:52;102004.81;;;5.76;67.79
77321;BME280;66382;52.252;8.780;2023-11-22T11:29:32;101996.69;;;5.66;68.22
77321;BME280;66382;52.252;8.780;2023-11-22T11:31:58;102001.19;;;5.66;67.56
77321;BME280;66382;52.252;8.780;2023-11-22T11:34:24;101989.09;;;5.62;66.51
77321;BME280;66382;52.252;8.780;2023-11-22T11:36:52;101991.13;;;5.58;66.98
77321;BME280;66382;52.252;8.780;2023-11-22T11:39:25;101983.50;;;5.53;68.06
77321;BME280;66382;52.252;8.780;2023-11-22T11:41:52;101984.63;;;5.62;68.10
77321;BME280;66382;52.252;8.780;2023-11-22T11:44:33;101974.34;;;5.69;67.17
77321;BME280;66382;52.252;8.780;2023-11-22T11:46:58;101958.38;;;5.69;67.70
77321;BME280;66382;52.252;8.780;2023-11-22T11:49:24;101961.53;;;5.74;67.73
77321;BME280;66382;52.252;8.780;2023-11-22T11:51:50;101938.53;;;5.73;68.01
77321;BME280;66382;52.252;8.780;2023-11-22T11:54:16;101937.81;;;5.82;68.73
77321;BME280;66382;52.252;8.780;2023-11-22T11:56:41;101924.97;;;5.87;68.70
77321;BME280;66382;52.252;8.780;2023-11-22T11:59:09;101910.47;;;5.91;68.39
77321;BME280;66382;52.252;8.780;2023-11-22T12:01:36;101884.06;;;5.88;67.79
77321;BME280;66382;52.252;8.780;2023-11-22T12:04:02;101874.41;;;5.87;68.15
77321;BME280;66382;52.252;8.780;2023-11-22T12:06:29;101869.09;;;5.87;68.54
77321;BME280;66382;52.252;8.780;2023-11-22T12:08:55;101868.97;;;5.89;68.49
77321;BME280;66382;52.252;8.780;2023-11-22T12:11:21;101872.22;;;5.92;68.50
77321;BME280;66382;52.252;8.780;2023-11-22T12:13:47;101860.59;;;5.93;66.84
77321;BME280;66382;52.252;8.780;2023-11-22T12:16:15;101843.47;;;5.86;67.57
77321;BME280;66382;52.252;8.780;2023-11-22T12:18:40;101846.13;;;5.86;68.34
77321;BME280;66382;52.252;8.780;2023-11-22T12:21:06;101853.84;;;5.89;68.38
77321;BME280;66382;52.252;8.780;2023-11-22T12:23:32;101849.09;;;5.93;67.86
77321;BME280;66382;52.252;8.780;2023-11-22T12:25:57;101843.78;;;5.93;67.15
77321;BME280;66382;52.252;8.780;2023-11-22T12:28:24;101847.94;;;5.97;67.90
77321;BME280;66382;52.252;8.780;2023-11-22T12:30:49;101836.06;;;6.01;67.52
77321;BME280;66382;52.252;8.780;2023-11-22T12:33:16;101827.81;;;6.04;67.04
77321;BME280;66382;52.252;8.780;2023-11-22T12:35:42;101812.69;;;6.05;67.53
77321;BME280;66382;52.252;8.780;2023-11-22T12:38:09;101816.19;;;6.05;67.81
77321;BME280;66382;52.252;8.780;2023-11-22T12:40:34;101812.81;;;6.03;67.00
77321;BME280;66382;52.252;8.780;2023-11-22T12:43:00;101809.81;;;5.96;65.26
77321;BME280;66382;52.252;8.780;2023-11-22T12:45:27;101804.84;;;5.92;65.94
77321;BME280;66382;52.252;8.780;2023-11-22T12:47:53;101809.31;;;5.91;66.32
77321;BME280;66382;52.252;8.780;2023-11-22T12:50:31;101803.41;;;5.88;67.30
77321;BME280;66382;52.252;8.780;2023-11-22T12:52:57;101819.50;;;5.97;67.22